Time;durP1;ratioP1;P1;durP2;ratioP2;P2;SDS_P1;SDS_P2;PMS_P1;PMS_P2;Temp;Humidity;BMP_temperature;BMP_pressure;BME280_temperature;BME280_humidity;BME280_pressure;Samples;Min_cycle;Max_cycle;Signal;HPM_P1;HPM_P2
2022/08/28 00:01:56;;;;;;;22.93;16.90;;;;;;;;;;5020373;28;20519;-54
2022/08/28 00:04:22;;;;;;;25.10;16.23;;;;;;;;;;5020545;28;20412;-54
2022/08/28 00:06:48;;;;;;;22.10;16.67;;;;;;;;;;5027773;28;20431;-54
2022/08/28 00:09:14;;;;;;;21.03;17.90;;;;;;;;;;4999454;28;20442;-54
2022/08/28 00:11:40;;;;;;;20.30;16.67;;;;;;;;;;5003814;28;20208;-56
2022/08/28 00:14:06;;;;;;;23.00;15.83;;;;;;;;;;5023284;28;20447;-55
2022/08/28 00:16:32;;;;;;;23.50;15.43;;;;;;;;;;5023539;28;20932;-54
2022/08/28 00:19:00;;;;;;;20.80;17.80;;;;;;;;;;5028227;28;20496;-54
2022/08/28 00:21:26;;;;;;;21.77;17.30;;;;;;;;;;5025186;28;20435;-54
2022/08/28 00:23:52;;;;;;;17.83;14.93;;;;;;;;;;5029569;28;20458;-54
2022/08/28 00:29:03;;;;;;;21.40;15.93;;;;;;;;;;5027668;28;20503;-54
2022/08/28 00:31:29;;;;;;;19.70;16.70;;;;;;;;;;5016795;28;20967;-54
2022/08/28 00:33:55;;;;;;;19.40;15.70;;;;;;;;;;5021567;28;20482;-53
2022/08/28 00:36:21;;;;;;;25.60;16.93;;;;;;;;;;5018636;28;20184;-53
2022/08/28 00:38:47;;;;;;;19.00;16.17;;;;;;;;;;5020666;28;20424;-54
2022/08/28 00:41:13;;;;;;;23.77;17.70;;;;;;;;;;4974266;28;20181;-53
2022/08/28 00:43:39;;;;;;;18.77;15.70;;;;;;;;;;5028331;28;20199;-53
2022/08/28 00:46:13;;;;;;;27.83;16.57;;;;;;;;;;5016353;28;20216;-52
2022/08/28 00:48:39;;;;;;;22.80;15.87;;;;;;;;;;5007405;28;20446;-54
2022/08/28 00:53:49;;;;;;;21.60;16.53;;;;;;;;;;5007441;28;20442;-53
2022/08/28 00:56:16;;;;;;;19.37;17.20;;;;;;;;;;5001273;28;20423;-55
2022/08/28 00:58:42;;;;;;;26.30;17.10;;;;;;;;;;5014130;28;20435;-55
2022/08/28 01:01:08;;;;;;;22.27;16.93;;;;;;;;;;4978964;28;20443;-53
2022/08/28 01:03:35;;;;;;;21.73;17.43;;;;;;;;;;5014093;28;20432;-55
2022/08/28 01:06:01;;;;;;;22.10;16.83;;;;;;;;;;5021512;28;20838;-55
2022/08/28 01:08:29;;;;;;;20.73;17.03;;;;;;;;;;4999909;28;20485;-55
2022/08/28 01:10:54;;;;;;;20.20;17.10;;;;;;;;;;4958766;28;20450;-54
2022/08/28 01:13:21;;;;;;;23.90;18.67;;;;;;;;;;5023806;28;20482;-54
2022/08/28 01:15:47;;;;;;;23.73;16.30;;;;;;;;;;5000917;28;20441;-54
2022/08/28 01:18:14;;;;;;;20.90;16.27;;;;;;;;;;5023250;28;20439;-54
2022/08/28 01:20:42;;;;;;;24.00;17.60;;;;;;;;;;5003727;28;20538;-54
2022/08/28 01:23:20;;;;;;;18.30;15.40;;;;;;;;;;5007129;28;20426;-54
2022/08/28 01:25:46;;;;;;;21.53;15.10;;;;;;;;;;5020967;28;20477;-54
2022/08/28 01:28:13;;;;;;;22.17;15.90;;;;;;;;;;5024541;28;20446;-54
2022/08/28 01:30:43;;;;;;;21.93;17.80;;;;;;;;;;5022837;28;20982;-55
2022/08/28 01:33:09;;;;;;;21.67;17.47;;;;;;;;;;5005546;28;21045;-54
2022/08/28 01:35:35;;;;;;;20.83;16.53;;;;;;;;;;5021691;28;20470;-55
2022/08/28 01:38:02;;;;;;;21.00;18.17;;;;;;;;;;5023999;28;20450;-54
2022/08/28 01:40:35;;;;;;;20.10;16.90;;;;;;;;;;5011751;28;22573;-54
2022/08/28 01:43:14;;;;;;;20.30;16.10;;;;;;;;;;5011384;28;20488;-54
2022/08/28 01:45:41;;;;;;;23.13;17.33;;;;;;;;;;4974415;28;21251;-54
2022/08/28 01:48:07;;;;;;;27.33;17.63;;;;;;;;;;5025749;28;20438;-54
2022/08/28 01:50:33;;;;;;;21.80;17.50;;;;;;;;;;5004082;28;20454;-55
2022/08/28 01:52:59;;;;;;;22.07;17.17;;;;;;;;;;5025866;28;21003;-54
2022/08/28 01:55:26;;;;;;;20.60;16.53;;;;;;;;;;5003297;28;20432;-53
2022/08/28 01:57:52;;;;;;;23.23;15.63;;;;;;;;;;5028323;28;20438;-55
2022/08/28 02:00:18;;;;;;;23.43;16.70;;;;;;;;;;4999750;28;20433;-53
2022/08/28 02:02:47;;;;;;;23.40;18.07;;;;;;;;;;5021131;28;20566;-54
2022/08/28 02:05:13;;;;;;;23.20;18.70;;;;;;;;;;5010925;28;20503;-54
2022/08/28 02:07:38;;;;;;;22.03;16.77;;;;;;;;;;5023486;28;20565;-54
2022/08/28 02:10:05;;;;;;;22.67;18.27;;;;;;;;;;5024040;28;20442;-54
2022/08/28 02:12:31;;;;;;;22.57;16.63;;;;;;;;;;5017177;28;20228;-54
2022/08/28 02:14:57;;;;;;;21.20;16.77;;;;;;;;;;5008349;28;20431;-54
2022/08/28 02:17:23;;;;;;;20.07;13.80;;;;;;;;;;5025043;28;20526;-54
2022/08/28 02:19:50;;;;;;;19.27;14.53;;;;;;;;;;5016982;28;20443;-54
2022/08/28 02:22:16;;;;;;;19.77;15.40;;;;;;;;;;4991527;28;20635;-54
2022/08/28 02:24:42;;;;;;;24.50;15.73;;;;;;;;;;5028281;28;20528;-54
2022/08/28 02:27:08;;;;;;;19.57;15.77;;;;;;;;;;5025119;28;20176;-54
2022/08/28 02:29:34;;;;;;;17.83;14.67;;;;;;;;;;5010393;28;20714;-54
2022/08/28 02:32:00;;;;;;;17.10;14.80;;;;;;;;;;5014283;28;20577;-54
2022/08/28 02:34:26;;;;;;;21.93;15.53;;;;;;;;;;5029675;28;20211;-54
2022/08/28 02:36:52;;;;;;;21.57;15.13;;;;;;;;;;5004449;28;20443;-54
2022/08/28 02:39:18;;;;;;;19.70;15.57;;;;;;;;;;5029300;28;20182;-54
2022/08/28 02:41:44;;;;;;;18.97;15.73;;;;;;;;;;5004867;28;20188;-53
2022/08/28 02:44:10;;;;;;;22.80;16.00;;;;;;;;;;5022025;28;20260;-54
2022/08/28 02:46:36;;;;;;;18.20;15.43;;;;;;;;;;5026142;28;20477;-53
2022/08/28 02:49:02;;;;;;;20.77;15.50;;;;;;;;;;5031509;28;20211;-54
2022/08/28 02:51:30;;;;;;;24.50;17.67;;;;;;;;;;4959819;28;20192;-54
2022/08/28 02:53:55;;;;;;;21.43;16.17;;;;;;;;;;5027230;28;20475;-53
2022/08/28 02:56:21;;;;;;;20.13;16.23;;;;;;;;;;5018453;28;20855;-54
2022/08/28 02:58:47;;;;;;;23.23;15.90;;;;;;;;;;5030860;28;20443;-54
2022/08/28 03:01:13;;;;;;;27.53;17.63;;;;;;;;;;5024585;28;20207;-54
2022/08/28 03:03:39;;;;;;;25.57;18.90;;;;;;;;;;5024922;28;20655;-54
2022/08/28 03:06:06;;;;;;;25.80;19.27;;;;;;;;;;5025483;28;20427;-53
2022/08/28 03:08:32;;;;;;;27.00;18.70;;;;;;;;;;5029793;28;20439;-53
2022/08/28 03:10:58;;;;;;;26.70;19.97;;;;;;;;;;5011157;28;20927;-54
2022/08/28 03:13:24;;;;;;;25.83;18.87;;;;;;;;;;5015532;28;20471;-52
2022/08/28 03:15:50;;;;;;;29.53;18.50;;;;;;;;;;5019742;28;20926;-52
2022/08/28 03:18:16;;;;;;;29.50;21.07;;;;;;;;;;5018855;28;20930;-53
2022/08/28 03:20:43;;;;;;;32.63;20.63;;;;;;;;;;5019999;28;20439;-53
2022/08/28 03:23:27;;;;;;;24.60;18.43;;;;;;;;;;4990995;28;20436;-53
2022/08/28 03:25:54;;;;;;;23.20;17.67;;;;;;;;;;5021752;28;20436;-52
2022/08/28 03:28:20;;;;;;;32.87;19.93;;;;;;;;;;5021382;28;20443;-52
2022/08/28 03:30:46;;;;;;;25.80;18.47;;;;;;;;;;5019623;28;20942;-55
2022/08/28 03:33:13;;;;;;;26.17;17.60;;;;;;;;;;5000835;28;20578;-53
2022/08/28 03:35:39;;;;;;;26.17;17.77;;;;;;;;;;5030273;28;20435;-56
2022/08/28 03:38:05;;;;;;;23.07;16.33;;;;;;;;;;5012636;28;20961;-52
2022/08/28 03:40:31;;;;;;;24.03;18.50;;;;;;;;;;5027133;28;20438;-54
2022/08/28 03:42:57;;;;;;;30.30;20.23;;;;;;;;;;4992527;28;20223;-54
2022/08/28 03:45:23;;;;;;;25.47;19.30;;;;;;;;;;5027405;28;20517;-54
2022/08/28 03:47:49;;;;;;;26.77;20.20;;;;;;;;;;5019895;28;20478;-53
2022/08/28 03:50:16;;;;;;;25.97;20.13;;;;;;;;;;5018555;28;21303;-54
2022/08/28 03:52:42;;;;;;;30.93;21.30;;;;;;;;;;4980479;28;21084;-54
2022/08/28 03:55:08;;;;;;;23.60;17.53;;;;;;;;;;5027400;28;20514;-55
2022/08/28 03:57:34;;;;;;;31.20;19.07;;;;;;;;;;5020961;28;20442;-53
2022/08/28 04:00:01;;;;;;;27.23;19.63;;;;;;;;;;5016494;28;21056;-55
2022/08/28 04:02:27;;;;;;;27.83;19.67;;;;;;;;;;5018705;28;20212;-54
2022/08/28 04:04:53;;;;;;;34.50;21.43;;;;;;;;;;5029002;28;20470;-53
2022/08/28 04:07:19;;;;;;;29.07;18.80;;;;;;;;;;5010974;28;20447;-53
2022/08/28 04:09:45;;;;;;;28.60;19.00;;;;;;;;;;5013103;28;20447;-55
2022/08/28 04:12:11;;;;;;;27.83;21.13;;;;;;;;;;5010021;28;20509;-53
2022/08/28 04:14:36;;;;;;;31.33;21.87;;;;;;;;;;5022519;28;20440;-54
2022/08/28 04:17:03;;;;;;;28.77;21.57;;;;;;;;;;5011801;28;20472;-54
2022/08/28 04:19:29;;;;;;;30.27;19.80;;;;;;;;;;5021858;28;20227;-54
2022/08/28 04:21:55;;;;;;;27.57;21.13;;;;;;;;;;5012883;28;20463;-54
2022/08/28 04:24:21;;;;;;;29.60;20.77;;;;;;;;;;5020772;28;20935;-53
2022/08/28 04:26:47;;;;;;;28.67;21.20;;;;;;;;;;4962236;28;20446;-54
2022/08/28 04:29:14;;;;;;;27.87;20.60;;;;;;;;;;4999154;28;20555;-55
2022/08/28 04:31:41;;;;;;;28.67;20.77;;;;;;;;;;4995270;28;20781;-54
2022/08/28 04:34:08;;;;;;;26.03;20.00;;;;;;;;;;5024057;28;20427;-54
2022/08/28 04:36:34;;;;;;;25.10;18.10;;;;;;;;;;5019111;28;20477;-54
2022/08/28 04:39:00;;;;;;;26.17;21.07;;;;;;;;;;5029929;28;20933;-54
2022/08/28 04:41:26;;;;;;;30.90;21.27;;;;;;;;;;5020372;28;20439;-54
2022/08/28 04:43:55;;;;;;;30.10;20.57;;;;;;;;;;5023633;28;20428;-54
2022/08/28 04:46:21;;;;;;;28.77;21.17;;;;;;;;;;5004740;28;20450;-54
2022/08/28 04:48:47;;;;;;;29.33;20.90;;;;;;;;;;5029323;28;20419;-54
2022/08/28 04:51:16;;;;;;;28.83;21.00;;;;;;;;;;5021637;28;20419;-54
2022/08/28 04:53:42;;;;;;;31.80;21.73;;;;;;;;;;5017553;28;20228;-55
2022/08/28 04:56:09;;;;;;;24.90;17.90;;;;;;;;;;5021596;28;20439;-55
2022/08/28 04:58:35;;;;;;;26.53;20.00;;;;;;;;;;5023272;28;20455;-54
2022/08/28 05:01:11;;;;;;;31.30;20.43;;;;;;;;;;4997281;28;21127;-53
2022/08/28 05:03:38;;;;;;;27.40;19.37;;;;;;;;;;5015644;28;20434;-53
2022/08/28 05:06:04;;;;;;;28.93;19.57;;;;;;;;;;5022746;28;20431;-53
2022/08/28 05:08:30;;;;;;;28.23;19.87;;;;;;;;;;5021778;28;20423;-52
2022/08/28 05:10:56;;;;;;;33.03;23.10;;;;;;;;;;4984784;28;20467;-53
2022/08/28 05:13:22;;;;;;;29.87;20.00;;;;;;;;;;5017583;28;20925;-53
2022/08/28 05:15:49;;;;;;;28.23;19.80;;;;;;;;;;5025859;28;20810;-53
2022/08/28 05:18:15;;;;;;;28.27;21.13;;;;;;;;;;5015936;28;20472;-53
2022/08/28 05:20:43;;;;;;;24.10;18.73;;;;;;;;;;5023584;28;20443;-53
2022/08/28 05:23:09;;;;;;;28.60;18.23;;;;;;;;;;4997389;28;20435;-53
2022/08/28 05:25:39;;;;;;;26.70;19.43;;;;;;;;;;5026428;28;20542;-53
2022/08/28 05:28:05;;;;;;;22.47;18.17;;;;;;;;;;5020416;28;20177;-54
2022/08/28 05:30:31;;;;;;;27.60;19.60;;;;;;;;;;5023289;28;20435;-53
2022/08/28 05:32:58;;;;;;;25.40;19.93;;;;;;;;;;4958490;28;20491;-53
2022/08/28 05:35:24;;;;;;;30.50;18.43;;;;;;;;;;5025485;28;20488;-54
2022/08/28 05:37:51;;;;;;;26.80;19.03;;;;;;;;;;5019111;28;20435;-53
2022/08/28 05:40:17;;;;;;;28.73;18.10;;;;;;;;;;5028540;28;20180;-54
2022/08/28 05:42:43;;;;;;;28.23;19.10;;;;;;;;;;5027441;28;20473;-54
2022/08/28 05:45:09;;;;;;;28.27;18.30;;;;;;;;;;5023445;28;20423;-54
2022/08/28 05:47:35;;;;;;;29.60;19.70;;;;;;;;;;5023596;28;20439;-54
2022/08/28 05:50:02;;;;;;;25.00;18.60;;;;;;;;;;5023471;28;21054;-54
2022/08/28 05:52:28;;;;;;;24.47;18.57;;;;;;;;;;5026769;28;21152;-53
2022/08/28 05:54:54;;;;;;;25.43;18.93;;;;;;;;;;5032123;28;20439;-54
2022/08/28 05:57:20;;;;;;;24.40;19.93;;;;;;;;;;5026204;28;20922;-54
2022/08/28 05:59:46;;;;;;;26.07;20.00;;;;;;;;;;5028252;28;20569;-54
2022/08/28 06:02:12;;;;;;;29.80;20.37;;;;;;;;;;4986712;28;20446;-54
2022/08/28 06:04:39;;;;;;;22.93;18.50;;;;;;;;;;5030046;28;20199;-54
2022/08/28 06:07:05;;;;;;;28.23;19.97;;;;;;;;;;5026491;28;20435;-53
2022/08/28 06:09:31;;;;;;;30.27;20.10;;;;;;;;;;5026480;28;20550;-54
2022/08/28 06:11:58;;;;;;;24.60;18.73;;;;;;;;;;5022639;28;20555;-54
2022/08/28 06:14:24;;;;;;;26.50;17.90;;;;;;;;;;5029697;28;20932;-54
2022/08/28 06:16:51;;;;;;;27.30;18.30;;;;;;;;;;5029098;28;20518;-54
2022/08/28 06:19:17;;;;;;;28.23;19.70;;;;;;;;;;5027370;28;20441;-54
2022/08/28 06:21:45;;;;;;;22.83;17.47;;;;;;;;;;5023599;28;20836;-54
2022/08/28 06:24:12;;;;;;;23.00;18.10;;;;;;;;;;4998170;28;20450;-52
2022/08/28 06:26:38;;;;;;;23.80;18.17;;;;;;;;;;5023613;28;20961;-52
2022/08/28 06:29:06;;;;;;;22.47;19.77;;;;;;;;;;5022024;28;20667;-53
2022/08/28 06:31:32;;;;;;;23.53;16.63;;;;;;;;;;5026823;28;20432;-53
2022/08/28 06:33:59;;;;;;;20.97;16.63;;;;;;;;;;5021789;28;20442;-53
2022/08/28 06:36:26;;;;;;;28.60;18.23;;;;;;;;;;5026321;28;20695;-57
2022/08/28 06:38:53;;;;;;;23.20;18.03;;;;;;;;;;4978982;28;20951;-53
2022/08/28 06:41:19;;;;;;;22.80;17.57;;;;;;;;;;5005036;28;20457;-53
2022/08/28 06:43:45;;;;;;;21.90;19.10;;;;;;;;;;5014228;28;20435;-53
2022/08/28 06:46:11;;;;;;;17.03;14.23;;;;;;;;;;5024432;28;20451;-53
2022/08/28 06:48:37;;;;;;;18.00;14.73;;;;;;;;;;5026671;28;20644;-55
2022/08/28 06:51:05;;;;;;;23.40;16.33;;;;;;;;;;5023268;28;20195;-53
2022/08/28 06:53:31;;;;;;;22.13;15.00;;;;;;;;;;5012540;28;20249;-54
2022/08/28 06:55:57;;;;;;;20.20;15.70;;;;;;;;;;5025444;28;20532;-54
2022/08/28 06:58:23;;;;;;;21.40;14.33;;;;;;;;;;5022345;28;20442;-53
2022/08/28 07:00:49;;;;;;;22.90;16.00;;;;;;;;;;5010139;28;20443;-54
2022/08/28 07:03:15;;;;;;;24.37;17.17;;;;;;;;;;5019263;28;20211;-53
2022/08/28 07:05:41;;;;;;;20.63;15.43;;;;;;;;;;5026144;28;20322;-53
2022/08/28 07:08:07;;;;;;;19.63;15.20;;;;;;;;;;5018929;28;20468;-53
2022/08/28 07:10:33;;;;;;;17.80;13.87;;;;;;;;;;5020100;28;20820;-53
2022/08/28 07:12:59;;;;;;;15.97;14.20;;;;;;;;;;4964343;28;20679;-53
2022/08/28 07:15:26;;;;;;;19.40;13.83;;;;;;;;;;5021459;28;20427;-53
2022/08/28 07:17:52;;;;;;;19.97;15.90;;;;;;;;;;5024736;28;20443;-53
2022/08/28 07:20:18;;;;;;;22.73;14.97;;;;;;;;;;5025032;28;20435;-53
2022/08/28 07:22:44;;;;;;;20.50;14.77;;;;;;;;;;5022137;28;20476;-53
2022/08/28 07:25:10;;;;;;;17.70;14.13;;;;;;;;;;5024975;28;20474;-54
2022/08/28 07:27:37;;;;;;;19.37;14.17;;;;;;;;;;5014586;28;20443;-53
2022/08/28 07:30:03;;;;;;;17.60;14.53;;;;;;;;;;5029083;28;20450;-53
2022/08/28 07:32:29;;;;;;;18.70;13.97;;;;;;;;;;5019176;28;20487;-53
2022/08/28 07:34:56;;;;;;;19.23;15.30;;;;;;;;;;5030334;28;20539;-54
2022/08/28 07:37:21;;;;;;;19.87;14.60;;;;;;;;;;5018146;28;20256;-53
2022/08/28 07:39:47;;;;;;;20.77;14.40;;;;;;;;;;5031207;28;20497;-54
2022/08/28 07:44:47;;;;;;;18.93;15.43;;;;;;;;;;4983192;28;20440;-53
2022/08/28 07:44:59;;;;;;;17.20;15.30;;;;;;;;;;5006005;28;20199;-53
2022/08/28 07:47:28;;;;;;;19.27;14.97;;;;;;;;;;5020622;28;20490;-53
2022/08/28 07:49:54;;;;;;;16.17;13.63;;;;;;;;;;5021513;28;20427;-54
2022/08/28 07:52:20;;;;;;;15.50;13.67;;;;;;;;;;5019496;28;21006;-53
2022/08/28 07:54:47;;;;;;;15.53;12.67;;;;;;;;;;5023324;28;20436;-53
2022/08/28 07:57:15;;;;;;;17.70;13.90;;;;;;;;;;5026927;28;20840;-53
2022/08/28 07:59:41;;;;;;;20.33;14.83;;;;;;;;;;5019945;28;20497;-54
2022/08/28 08:02:09;;;;;;;20.23;14.20;;;;;;;;;;5024431;28;20431;-53
2022/08/28 08:04:35;;;;;;;21.57;14.23;;;;;;;;;;5003869;28;20443;-53
2022/08/28 08:07:01;;;;;;;21.43;15.00;;;;;;;;;;5024966;28;20443;-53
2022/08/28 08:09:26;;;;;;;20.20;14.70;;;;;;;;;;5023689;28;20446;-53
2022/08/28 08:11:53;;;;;;;20.30;14.87;;;;;;;;;;5028377;28;20450;-53
2022/08/28 08:14:19;;;;;;;19.37;14.63;;;;;;;;;;4979582;28;20468;-53
2022/08/28 08:16:45;;;;;;;15.37;13.80;;;;;;;;;;5018973;28;20510;-54
2022/08/28 08:19:14;;;;;;;15.50;13.80;;;;;;;;;;5022529;28;20442;-53
2022/08/28 08:21:42;;;;;;;15.37;12.60;;;;;;;;;;5029976;28;20455;-53
2022/08/28 08:24:08;;;;;;;18.37;13.53;;;;;;;;;;5024359;28;20791;-53
2022/08/28 08:26:34;;;;;;;16.27;14.73;;;;;;;;;;5021986;28;20513;-53
2022/08/28 08:29:00;;;;;;;19.03;14.17;;;;;;;;;;5022511;28;20942;-53
2022/08/28 08:31:27;;;;;;;14.83;13.23;;;;;;;;;;5027549;28;20431;-53
2022/08/28 08:33:54;;;;;;;16.73;12.40;;;;;;;;;;5003818;28;20480;-53
2022/08/28 08:36:21;;;;;;;14.67;12.53;;;;;;;;;;5028455;28;21198;-53
2022/08/28 08:38:47;;;;;;;16.37;13.00;;;;;;;;;;5023875;28;20525;-53
2022/08/28 08:41:30;;;;;;;17.30;12.27;;;;;;;;;;5024486;28;20435;-55
2022/08/28 08:44:10;;;;;;;16.20;12.30;;;;;;;;;;5003674;28;20469;-54
2022/08/28 08:46:45;;;;;;;17.50;12.67;;;;;;;;;;5006225;28;20455;-54
2022/08/28 08:49:22;;;;;;;14.33;12.60;;;;;;;;;;4976014;28;20448;-55
2022/08/28 08:51:59;;;;;;;14.73;13.23;;;;;;;;;;5025055;28;20430;-54
2022/08/28 08:54:25;;;;;;;13.57;12.20;;;;;;;;;;5008572;28;20457;-54
2022/08/28 08:56:51;;;;;;;15.00;13.33;;;;;;;;;;5023244;28;20427;-53
2022/08/28 08:59:18;;;;;;;18.67;12.53;;;;;;;;;;5018579;28;20439;-54
2022/08/28 09:02:03;;;;;;;15.23;13.50;;;;;;;;;;5007389;28;20427;-53
2022/08/28 09:04:42;;;;;;;16.83;12.10;;;;;;;;;;5014803;28;20540;-53
2022/08/28 09:07:26;;;;;;;17.80;13.67;;;;;;;;;;5024849;28;20439;-53
2022/08/28 09:09:54;;;;;;;13.47;12.17;;;;;;;;;;5019765;28;20485;-53
2022/08/28 09:12:30;;;;;;;12.37;11.10;;;;;;;;;;5018573;28;20475;-53
2022/08/28 09:14:57;;;;;;;13.47;11.53;;;;;;;;;;4998516;28;20481;-53
2022/08/28 09:17:23;;;;;;;13.40;11.27;;;;;;;;;;5031401;28;20496;-53
2022/08/28 09:19:49;;;;;;;11.17;10.00;;;;;;;;;;5002987;28;20835;-54
2022/08/28 09:22:15;;;;;;;13.03;11.63;;;;;;;;;;5031305;28;20427;-53
2022/08/28 09:24:41;;;;;;;17.03;11.70;;;;;;;;;;4981141;28;21004;-54
2022/08/28 09:27:08;;;;;;;12.63;11.30;;;;;;;;;;5026986;28;20485;-54
2022/08/28 09:29:45;;;;;;;13.90;11.03;;;;;;;;;;5010671;28;20439;-54
2022/08/28 09:32:16;;;;;;;14.40;11.90;;;;;;;;;;5023272;28;20474;-54
2022/08/28 09:34:58;;;;;;;20.30;11.77;;;;;;;;;;5023139;28;20432;-54
2022/08/28 09:37:28;;;;;;;13.77;10.33;;;;;;;;;;5022407;28;20487;-54
2022/08/28 09:40:14;;;;;;;13.30;11.90;;;;;;;;;;5024769;28;20539;-53
2022/08/28 09:45:25;;;;;;;11.53;10.33;;;;;;;;;;5024631;28;20862;-53
2022/08/28 09:47:51;;;;;;;11.10;10.00;;;;;;;;;;5007560;28;20436;-52
2022/08/28 09:50:17;;;;;;;10.80;9.70;;;;;;;;;;5027514;28;20428;-53
2022/08/28 09:52:43;;;;;;;11.00;9.87;;;;;;;;;;5006752;28;20782;-54
2022/08/28 09:55:10;;;;;;;12.37;9.93;;;;;;;;;;4988531;28;20942;-54
2022/08/28 09:57:36;;;;;;;9.97;8.93;;;;;;;;;;4993698;28;20450;-53
2022/08/28 10:00:02;;;;;;;10.37;9.30;;;;;;;;;;5026119;28;20451;-53
2022/08/28 10:02:37;;;;;;;10.77;8.97;;;;;;;;;;5008542;28;20971;-53
2022/08/28 10:05:07;;;;;;;11.93;9.17;;;;;;;;;;5007204;28;20521;-53
2022/08/28 10:07:36;;;;;;;10.40;9.30;;;;;;;;;;5014014;28;20427;-53
2022/08/28 10:10:15;;;;;;;11.97;9.43;;;;;;;;;;5018008;28;20443;-53
2022/08/28 10:13:01;;;;;;;10.97;9.27;;;;;;;;;;5022128;28;20470;-53
2022/08/28 10:15:27;;;;;;;14.30;10.70;;;;;;;;;;5006108;28;20542;-52
2022/08/28 10:17:56;;;;;;;12.67;11.33;;;;;;;;;;5020928;28;20873;-53
2022/08/28 10:20:30;;;;;;;12.00;10.80;;;;;;;;;;5026558;28;21218;-53
2022/08/28 10:23:05;;;;;;;14.63;11.13;;;;;;;;;;5023609;28;21241;-53
2022/08/28 10:25:46;;;;;;;12.03;10.43;;;;;;;;;;5002367;28;20446;-53
2022/08/28 10:28:19;;;;;;;12.80;11.50;;;;;;;;;;4984303;28;21482;-52
2022/08/28 10:30:50;;;;;;;14.87;12.47;;;;;;;;;;5005569;28;20466;-52
2022/08/28 10:33:16;;;;;;;13.13;11.40;;;;;;;;;;5006422;28;20527;-51
2022/08/28 10:35:48;;;;;;;16.30;10.43;;;;;;;;;;5002226;28;20424;-55
2022/08/28 10:38:38;;;;;;;12.33;11.10;;;;;;;;;;5011862;28;20809;-54
2022/08/28 10:41:09;;;;;;;12.93;9.50;;;;;;;;;;4982188;28;20489;-54
2022/08/28 10:43:42;;;;;;;11.50;9.60;;;;;;;;;;5016050;28;20423;-54
2022/08/28 10:46:09;;;;;;;10.40;9.07;;;;;;;;;;5009591;28;20439;-55
2022/08/28 10:48:43;;;;;;;12.20;10.23;;;;;;;;;;5003764;28;20917;-54
2022/08/28 10:51:13;;;;;;;11.70;10.50;;;;;;;;;;5010567;28;20435;-54
2022/08/28 10:53:44;;;;;;;11.00;9.57;;;;;;;;;;5017251;28;20632;-54
2022/08/28 10:56:12;;;;;;;17.33;12.67;;;;;;;;;;5027153;28;20952;-54
2022/08/28 10:58:39;;;;;;;11.77;10.50;;;;;;;;;;4985914;28;21293;-54
2022/08/28 11:01:06;;;;;;;12.10;9.97;;;;;;;;;;5002115;28;20438;-54
2022/08/28 11:03:36;;;;;;;11.93;10.73;;;;;;;;;;5009647;28;20443;-55
2022/08/28 11:06:10;;;;;;;12.20;10.07;;;;;;;;;;5017024;28;20450;-54
2022/08/28 11:08:36;;;;;;;13.80;11.27;;;;;;;;;;5027413;28;20435;-54
2022/08/28 11:11:03;;;;;;;11.67;10.50;;;;;;;;;;5028137;28;20443;-54
2022/08/28 11:13:48;;;;;;;14.10;10.00;;;;;;;;;;5008885;28;20479;-54
2022/08/28 11:16:18;;;;;;;12.10;9.60;;;;;;;;;;5026407;28;20534;-54
2022/08/28 11:19:03;;;;;;;9.57;8.33;;;;;;;;;;5023035;28;20424;-54
2022/08/28 11:21:30;;;;;;;9.33;8.43;;;;;;;;;;5024817;28;20427;-54
2022/08/28 11:23:57;;;;;;;10.80;9.70;;;;;;;;;;4999939;28;21269;-55
2022/08/28 11:26:32;;;;;;;9.90;9.00;;;;;;;;;;4991891;28;21121;-54
2022/08/28 11:28:58;;;;;;;9.83;8.83;;;;;;;;;;5009107;28;20470;-54
2022/08/28 11:31:24;;;;;;;11.83;10.00;;;;;;;;;;5029138;28;20462;-54
2022/08/28 11:33:51;;;;;;;10.67;9.03;;;;;;;;;;4998127;28;20271;-54
2022/08/28 11:36:18;;;;;;;8.03;7.17;;;;;;;;;;4999392;28;20191;-54
2022/08/28 11:38:44;;;;;;;10.20;9.20;;;;;;;;;;5025592;28;20447;-54
2022/08/28 11:41:13;;;;;;;10.70;7.80;;;;;;;;;;5026554;28;20802;-54
2022/08/28 11:43:40;;;;;;;7.33;6.10;;;;;;;;;;5020812;28;20427;-54
2022/08/28 11:46:09;;;;;;;8.83;7.13;;;;;;;;;;5016453;28;20502;-54
2022/08/28 11:48:36;;;;;;;6.50;5.90;;;;;;;;;;5010508;28;20435;-54
2022/08/28 11:51:08;;;;;;;8.20;7.00;;;;;;;;;;5024712;28;20431;-55
2022/08/28 11:53:53;;;;;;;8.23;7.43;;;;;;;;;;5010617;28;20517;-53
2022/08/28 11:56:25;;;;;;;6.90;6.27;;;;;;;;;;5024966;28;20458;-55
2022/08/28 11:59:00;;;;;;;7.60;7.00;;;;;;;;;;5024396;28;20462;-53
2022/08/28 12:01:28;;;;;;;9.33;8.13;;;;;;;;;;5028594;28;21002;-53
2022/08/28 12:04:07;;;;;;;8.60;7.60;;;;;;;;;;5004701;28;20442;-54
2022/08/28 12:06:48;;;;;;;8.30;7.60;;;;;;;;;;5005155;28;20475;-53
2022/08/28 12:09:23;;;;;;;8.40;7.60;;;;;;;;;;4977379;28;20455;-54
2022/08/28 12:11:49;;;;;;;8.33;7.53;;;;;;;;;;5023845;28;20463;-54
2022/08/28 12:14:24;;;;;;;8.47;6.77;;;;;;;;;;5013810;28;21471;-54
2022/08/28 12:17:04;;;;;;;8.03;6.80;;;;;;;;;;5022190;28;20461;-54
2022/08/28 12:19:37;;;;;;;7.90;7.13;;;;;;;;;;5024615;28;20957;-53
2022/08/28 12:22:04;;;;;;;7.43;6.80;;;;;;;;;;5002997;28;20500;-53
2022/08/28 12:24:30;;;;;;;7.53;6.83;;;;;;;;;;5016956;28;20521;-53
2022/08/28 12:26:56;;;;;;;7.70;7.00;;;;;;;;;;5019150;28;20432;-54
2022/08/28 12:29:32;;;;;;;6.57;5.90;;;;;;;;;;5018678;28;20271;-54
2022/08/28 12:32:10;;;;;;;8.40;7.13;;;;;;;;;;5004207;28;20889;-53
2022/08/28 12:34:42;;;;;;;8.40;6.80;;;;;;;;;;5019245;28;20446;-52
2022/08/28 12:37:21;;;;;;;7.53;6.73;;;;;;;;;;5023103;28;20435;-53
2022/08/28 12:39:46;;;;;;;8.13;6.90;;;;;;;;;;4975740;28;20454;-54
2022/08/28 12:42:19;;;;;;;11.93;6.63;;;;;;;;;;5023135;28;20488;-53
2022/08/28 12:44:45;;;;;;;7.93;7.23;;;;;;;;;;5020889;28;20195;-54
2022/08/28 12:47:16;;;;;;;10.47;6.37;;;;;;;;;;4998906;28;20490;-54
2022/08/28 12:49:42;;;;;;;10.50;7.70;;;;;;;;;;5002081;28;20441;-53
2022/08/28 12:52:18;;;;;;;7.77;7.00;;;;;;;;;;5026024;28;20980;-53
2022/08/28 12:54:44;;;;;;;7.67;7.00;;;;;;;;;;5021929;28;20186;-53
2022/08/28 12:57:15;;;;;;;7.83;7.00;;;;;;;;;;5018727;28;20510;-53
2022/08/28 12:59:42;;;;;;;8.07;6.70;;;;;;;;;;5007496;28;20918;-54
2022/08/28 13:02:12;;;;;;;7.13;6.43;;;;;;;;;;5025898;28;20447;-54
2022/08/28 13:04:42;;;;;;;6.70;6.00;;;;;;;;;;4994979;28;20450;-54
2022/08/28 13:07:11;;;;;;;10.23;6.40;;;;;;;;;;4994637;28;20931;-54
2022/08/28 13:09:38;;;;;;;8.90;6.07;;;;;;;;;;5001032;28;21002;-54
2022/08/28 13:12:04;;;;;;;7.70;7.00;;;;;;;;;;5004592;28;20438;-53
2022/08/28 13:14:37;;;;;;;6.80;6.20;;;;;;;;;;4994487;28;20443;-54
2022/08/28 13:17:03;;;;;;;6.90;6.40;;;;;;;;;;5013014;28;20456;-54
2022/08/28 13:19:30;;;;;;;7.70;6.40;;;;;;;;;;5026057;28;21136;-53
2022/08/28 13:22:00;;;;;;;7.07;6.53;;;;;;;;;;5019132;28;20585;-53
2022/08/28 13:24:36;;;;;;;9.33;6.93;;;;;;;;;;5013805;28;20542;-53
2022/08/28 13:27:05;;;;;;;10.43;8.30;;;;;;;;;;5013235;28;20431;-53
2022/08/28 13:29:31;;;;;;;7.73;7.03;;;;;;;;;;5020776;28;20428;-53
2022/08/28 13:32:16;;;;;;;8.30;7.60;;;;;;;;;;5022856;28;20485;-54
2022/08/28 13:34:42;;;;;;;6.80;6.20;;;;;;;;;;5021094;28;20432;-54
2022/08/28 13:37:08;;;;;;;7.57;6.23;;;;;;;;;;5025032;28;20443;-53
2022/08/28 13:39:34;;;;;;;5.90;5.43;;;;;;;;;;5026195;28;20419;-53
2022/08/28 13:42:10;;;;;;;6.93;6.10;;;;;;;;;;5023403;28;21608;-52
2022/08/28 13:44:47;;;;;;;7.23;6.53;;;;;;;;;;5005256;28;20462;-55
2022/08/28 13:47:13;;;;;;;6.90;6.20;;;;;;;;;;5014715;28;20446;-55
2022/08/28 13:49:39;;;;;;;7.67;6.40;;;;;;;;;;5017972;28;20523;-55
2022/08/28 13:52:05;;;;;;;8.17;7.07;;;;;;;;;;5023561;28;21142;-54
2022/08/28 13:54:31;;;;;;;8.20;7.07;;;;;;;;;;5024149;28;20184;-54
2022/08/28 13:56:57;;;;;;;9.20;7.30;;;;;;;;;;4994101;28;20443;-54
2022/08/28 13:59:23;;;;;;;8.07;6.13;;;;;;;;;;5026187;28;20437;-55
2022/08/28 14:04:35;;;;;;;7.67;6.93;;;;;;;;;;5025407;28;20434;-54
2022/08/28 14:07:01;;;;;;;6.43;5.80;;;;;;;;;;5029829;28;21026;-55
2022/08/28 14:09:27;;;;;;;8.40;7.13;;;;;;;;;;5014328;28;20445;-55
2022/08/28 14:11:54;;;;;;;7.27;6.57;;;;;;;;;;5010652;28;20442;-54
2022/08/28 14:14:20;;;;;;;6.70;6.10;;;;;;;;;;5020974;28;20454;-55
2022/08/28 14:16:47;;;;;;;7.50;6.77;;;;;;;;;;4986522;28;20446;-54
2022/08/28 14:19:13;;;;;;;7.10;6.50;;;;;;;;;;5001588;28;20438;-55
2022/08/28 14:21:39;;;;;;;7.43;6.73;;;;;;;;;;5019736;28;20506;-55
2022/08/28 14:24:06;;;;;;;6.33;5.73;;;;;;;;;;5015713;28;20185;-53
2022/08/28 14:26:32;;;;;;;7.03;6.33;;;;;;;;;;5025795;28;20561;-53
2022/08/28 14:28:58;;;;;;;6.33;5.70;;;;;;;;;;5026278;28;20479;-53
2022/08/28 14:31:24;;;;;;;8.63;7.77;;;;;;;;;;5019878;28;21066;-54
2022/08/28 14:33:50;;;;;;;6.67;6.00;;;;;;;;;;5013811;28;21054;-53
2022/08/28 14:36:16;;;;;;;6.70;6.10;;;;;;;;;;5013743;28;20463;-54
2022/08/28 14:38:42;;;;;;;8.63;6.47;;;;;;;;;;5027867;28;20186;-53
2022/08/28 14:41:08;;;;;;;9.03;6.90;;;;;;;;;;5025606;28;20439;-53